MMCS/CJS METAR and TAF weather

Enter ICAO airport designator
Station Type Date Time Source
MMCS METAR 2020/08/10 18:40 UTC NOAA

MMCS 101840Z 31006KT 270V350 10SM SKC 37/09 A3007 RMK ISOL CU DSNT TCU NE-E-SE


Station Type Date Time Source
MMCS Decoded METAR 2020/08/10 18:40 UTC NOAA

Ciudad Juarez International , Mexico (MMCS) 31-38N 106-26W
Aug 10, 2020 - 02:40 PM EDT / 2020.08.10 1840 UTC
Wind: from the NW (310 degrees) at 7 MPH (6 KT) (direction variable):0
Visibility: 10 mile(s):0
Sky conditions: clear
Weather: Towering cumulus clouds observed
Temperature: 98 F (37 C)
Heat index: 94.5 F (34.7 C):1
Dew Point: 48 F (9 C)
Relative Humidity: 18%
Pressure (altimeter): 30.07 in. Hg (1018 hPa)
ob: MMCS 101840Z 31006KT 270V350 10SM SKC 37/09 A3007 RMK ISOL CU DSNT TCU NE-E-SE
cycle: 18

Station Type Date Time Source
MMCS TAF 2020/08/10 18:36 UTC NOAA

TAF MMCS 101729Z 1018/1118 36015KT P6SM SCT030 SCT120
FM110000 32010KT P6SM SCT020CB BKN100
FM110600 00000KT P6SM SCT100 SCT240
FM111500 27010KT P6SM SKC

Example: see airport list